DNMM/LOS METAR and TAF weather

Enter ICAO airport designator
Station Type Date Time Source
DNMM METAR 2019/06/18 13:00 UTC NOAA

DNMM 181300Z 25004KT 8000 SCT013 FEW020CB 29/26 Q1016 NOSIG


Station Type Date Time Source
DNMM Decoded METAR 2019/06/18 13:00 UTC NOAA

Lagos / Ikeja, Nigeria (DNMM) 06-35N 003-20E 38M
Jun 18, 2019 - 09:00 AM EDT / 2019.06.18 1300 UTC
Wind: from the WSW (250 degrees) at 5 MPH (4 KT):0
Visibility: 4 mile(s):0
Sky conditions: partly cloudy
Weather: Cumulonimbus clouds observed
Temperature: 84 F (29 C)
Dew Point: 78 F (26 C)
Relative Humidity: 83%
Pressure (altimeter): 30.00 in. Hg (1016 hPa)
ob: DNMM 181300Z 25004KT 8000 SCT013 FEW020CB 29/26 Q1016 NOSIG
cycle: 13

Station Type Date Time Source
DNMM TAF 2019/06/18 12:21 UTC NOAA

TAF DNMM 180955Z 1812/1918 25010KT 8000 -TSRA BKN013 FEW020CB
TEMPO 1813/1818 TS SCT013 FEW019CB
BECMG 1818/1820 VRB02KT FEW009

Example: see airport list